Wind Direction, Wind Speed (G=Gust speed) for:
MALIBU HILLS, CA (MBUC1)

Elev: 1575 ft; Latitude: 34.0617; Longitude: -118.6453

08 Apr 8:56 pm PDT ENE 16G44
08 Apr 7:56 pm PDT SSW 33G125
08 Apr 6:56 pm PDT SE 28G119
08 Apr 5:56 pm PDT S 10G50
08 Apr 4:56 pm PDT SE 7G69
08 Apr 3:56 pm PDT NNE 9G36
08 Apr 2:56 pm PDT NE 7G36
08 Apr 1:56 pm PDT ENE 8G80
08 Apr 12:56 pm PDT SSW 9G114
08 Apr 11:56 am PDT SW 26G120
08 Apr 10:56 am PDT SSE 38G128
08 Apr 9:56 am PDT ENE 42G133
08 Apr 8:56 am PDT N 31G80
08 Apr 7:56 am PDT WNW 44G80
08 Apr 6:56 am PDT SSW 36G127
08 Apr 5:56 am PDT W 12G47
08 Apr 4:56 am PDT NW 13G46
08 Apr 3:56 am PDT WSW 8G26
08 Apr 2:56 am PDT NNW 9G25
08 Apr 1:56 am PDT SW 7G25
08 Apr 12:56 am PDT NW 7G25
07 Apr 11:56 pm PDT NE 8G69
07 Apr 10:56 pm PDT SSW 91G111
07 Apr 9:56 pm PDT NE 10G35
07 Apr 8:56 pm PDT NE 7G48
07 Apr 7:56 pm PDT S 14G119
07 Apr 6:56 pm PDT S 8G22
07 Apr 5:56 pm PDT NNE 6G20
07 Apr 4:56 pm PDT NE 6G14
07 Apr 3:56 pm PDT NW 6G18
07 Apr 2:56 pm PDT N 6G15
07 Apr 1:56 pm PDT NNW 8G16
07 Apr 12:56 pm PDT SSW 7G15
07 Apr 11:56 am PDT E 7G15
07 Apr 10:56 am PDT WNW 6G37
07 Apr 9:56 am PDT W 6G38
07 Apr 8:56 am PDT NNE 18G117
07 Apr 7:56 am PDT E 16G54
07 Apr 6:56 am PDT N 12G37
07 Apr 5:56 am PDT ESE 16G37
07 Apr 4:56 am PDT NW 21G39
07 Apr 3:56 am PDT W 11G35
07 Apr 2:56 am PDT NNE 10G38
07 Apr 1:56 am PDT NNW 16G38
07 Apr 12:56 am PDT NE 18G36
06 Apr 11:56 pm PDT WSW 9G49
06 Apr 10:56 pm PDT NNE 19G39
06 Apr 9:56 pm PDT SSE 19G71
06 Apr 8:56 pm PDT NNW 17G38
06 Apr 7:56 pm PDT WSW 6G26
06 Apr 6:56 pm PDT NE 6G12
06 Apr 5:56 pm PDT NE 7G12
06 Apr 4:56 pm PDT SSE 9G22
06 Apr 3:56 pm PDT ESE 10G39
06 Apr 2:56 pm PDT ENE 6G41
06 Apr 1:56 pm PDT N 8G38
06 Apr 12:56 pm PDT WNW 5G16
06 Apr 11:56 am PDT SSW 6G39
06 Apr 10:56 am PDT WSW 7G18
06 Apr 9:56 am PDT N 6G35
06 Apr 8:56 am PDT ENE 14G44
06 Apr 7:56 am PDT N 12G33
06 Apr 6:56 am PDT S 9G30
06 Apr 5:56 am PDT SSE 19G46
06 Apr 4:56 am PDT SSW 14G33
06 Apr 3:56 am PDT SSW 20G51
06 Apr 2:56 am PDT W 20G47
06 Apr 1:56 am PDT ENE 14G48
06 Apr 12:56 am PDT E 18G46
05 Apr 11:56 pm PDT NNW 13G36
05 Apr 10:56 pm PDT NE 9G24
05 Apr 9:56 pm PDT W 13G33
05 Apr 8:56 pm PDT ENE 15G25
05 Apr 7:56 pm PDT NNW 15G50
05 Apr 6:56 pm PDT SSE 8G73
05 Apr 5:56 pm PDT S 9G73
05 Apr 4:56 pm PDT NNW 15G38
05 Apr 3:56 pm PDT S 13G124
05 Apr 2:56 pm PDT SW 7G39
05 Apr 1:56 pm PDT SW 15G39
05 Apr 12:56 pm PDT NE 9G36
05 Apr 11:56 am PDT ESE 15G36
05 Apr 10:56 am PDT NNE 8G72
05 Apr 9:56 am PDT W 7G34
05 Apr 8:56 am PDT NE 7G35
05 Apr 7:56 am PDT NNW 11G44
05 Apr 6:56 am PDT SW 11G24
05 Apr 5:56 am PDT WNW 9G32
05 Apr 4:56 am PDT NNW 10G26
05 Apr 3:56 am PDT WNW 7G23
05 Apr 2:56 am PDT NE 8G17
05 Apr 1:56 am PDT NW 14G24
05 Apr 12:56 am PDT NNE 7G36
04 Apr 11:56 pm PDT NNW 12G37
04 Apr 10:56 pm PDT N 12G37
04 Apr 9:56 pm PDT NNE 9G36
04 Apr 8:56 pm PDT N 14G54
04 Apr 7:56 pm PDT ENE 32G52

http://www.wrh.noaa.gov/mesowest/getobext.php?wfo=lox&sid=MBUC1&num=168&raw=0&dbn=m